sensor_id;sensor_type;location;lat;lon;timestamp;P1;durP1;ratioP1;P2;durP2;ratioP2
35530;SDS011;21637;53.352;-6.356;2023-11-19T00:00:45;18.20;;;3.50;;
35530;SDS011;21637;53.352;-6.356;2023-11-19T00:03:11;19.50;;;3.97;;
35530;SDS011;21637;53.352;-6.356;2023-11-19T00:05:38;20.85;;;4.15;;
35530;SDS011;21637;53.352;-6.356;2023-11-19T00:08:04;28.67;;;4.80;;
35530;SDS011;21637;53.352;-6.356;2023-11-19T00:10:31;29.52;;;4.88;;
35530;SDS011;21637;53.352;-6.356;2023-11-19T00:12:56;20.00;;;4.35;;
35530;SDS011;21637;53.352;-6.356;2023-11-19T00:15:22;30.75;;;5.20;;
35530;SDS011;21637;53.352;-6.356;2023-11-19T00:17:49;25.40;;;4.78;;
35530;SDS011;21637;53.352;-6.356;2023-11-19T00:20:15;23.35;;;4.93;;
35530;SDS011;21637;53.352;-6.356;2023-11-19T00:22:46;26.63;;;5.05;;
35530;SDS011;21637;53.352;-6.356;2023-11-19T00:25:13;31.48;;;5.28;;
35530;SDS011;21637;53.352;-6.356;2023-11-19T00:27:39;23.75;;;4.32;;
35530;SDS011;21637;53.352;-6.356;2023-11-19T00:30:05;18.90;;;3.97;;
35530;SDS011;21637;53.352;-6.356;2023-11-19T00:32:33;18.67;;;4.10;;
35530;SDS011;21637;53.352;-6.356;2023-11-19T00:34:59;23.48;;;4.38;;
35530;SDS011;21637;53.352;-6.356;2023-11-19T00:37:25;18.70;;;4.05;;
35530;SDS011;21637;53.352;-6.356;2023-11-19T00:39:51;27.27;;;4.45;;
35530;SDS011;21637;53.352;-6.356;2023-11-19T00:42:17;28.17;;;6.07;;
35530;SDS011;21637;53.352;-6.356;2023-11-19T00:44:43;25.52;;;4.78;;
35530;SDS011;21637;53.352;-6.356;2023-11-19T00:47:09;29.77;;;5.53;;
35530;SDS011;21637;53.352;-6.356;2023-11-19T00:49:34;27.90;;;5.85;;
35530;SDS011;21637;53.352;-6.356;2023-11-19T00:52:00;28.38;;;4.88;;
35530;SDS011;21637;53.352;-6.356;2023-11-19T00:54:27;24.17;;;5.18;;
35530;SDS011;21637;53.352;-6.356;2023-11-19T00:56:53;26.52;;;5.72;;
35530;SDS011;21637;53.352;-6.356;2023-11-19T00:59:19;25.67;;;4.57;;
35530;SDS011;21637;53.352;-6.356;2023-11-19T01:01:45;23.88;;;3.85;;
35530;SDS011;21637;53.352;-6.356;2023-11-19T01:04:13;20.10;;;4.80;;
35530;SDS011;21637;53.352;-6.356;2023-11-19T01:06:39;27.75;;;4.53;;
35530;SDS011;21637;53.352;-6.356;2023-11-19T01:09:05;26.40;;;5.13;;
35530;SDS011;21637;53.352;-6.356;2023-11-19T01:11:34;25.23;;;4.45;;
35530;SDS011;21637;53.352;-6.356;2023-11-19T01:14:00;29.50;;;4.22;;
35530;SDS011;21637;53.352;-6.356;2023-11-19T01:16:26;24.05;;;4.75;;
35530;SDS011;21637;53.352;-6.356;2023-11-19T01:18:52;16.65;;;3.78;;
35530;SDS011;21637;53.352;-6.356;2023-11-19T01:21:18;19.00;;;4.22;;
35530;SDS011;21637;53.352;-6.356;2023-11-19T01:23:44;20.77;;;3.67;;
35530;SDS011;21637;53.352;-6.356;2023-11-19T01:26:10;26.30;;;3.60;;
35530;SDS011;21637;53.352;-6.356;2023-11-19T01:28:39;21.38;;;3.50;;
35530;SDS011;21637;53.352;-6.356;2023-11-19T01:31:08;22.88;;;3.72;;
35530;SDS011;21637;53.352;-6.356;2023-11-19T01:33:35;19.65;;;3.83;;
35530;SDS011;21637;53.352;-6.356;2023-11-19T01:36:01;17.10;;;3.60;;
35530;SDS011;21637;53.352;-6.356;2023-11-19T01:38:27;14.02;;;3.10;;
35530;SDS011;21637;53.352;-6.356;2023-11-19T01:40:56;16.75;;;3.80;;
35530;SDS011;21637;53.352;-6.356;2023-11-19T01:46:02;17.42;;;3.17;;
35530;SDS011;21637;53.352;-6.356;2023-11-19T01:48:28;22.35;;;3.08;;
35530;SDS011;21637;53.352;-6.356;2023-11-19T01:50:55;17.73;;;3.25;;
35530;SDS011;21637;53.352;-6.356;2023-11-19T01:53:22;14.93;;;3.03;;
35530;SDS011;21637;53.352;-6.356;2023-11-19T01:55:48;19.50;;;4.35;;
35530;SDS011;21637;53.352;-6.356;2023-11-19T01:58:15;17.83;;;2.85;;
35530;SDS011;21637;53.352;-6.356;2023-11-19T02:00:42;15.32;;;4.13;;
35530;SDS011;21637;53.352;-6.356;2023-11-19T02:03:09;19.08;;;3.67;;
35530;SDS011;21637;53.352;-6.356;2023-11-19T02:05:35;16.10;;;3.75;;
35530;SDS011;21637;53.352;-6.356;2023-11-19T02:08:02;18.17;;;2.97;;
35530;SDS011;21637;53.352;-6.356;2023-11-19T02:10:28;17.75;;;3.70;;
35530;SDS011;21637;53.352;-6.356;2023-11-19T02:12:54;21.13;;;3.92;;
35530;SDS011;21637;53.352;-6.356;2023-11-19T02:15:20;22.33;;;3.83;;
35530;SDS011;21637;53.352;-6.356;2023-11-19T02:17:49;21.35;;;3.97;;
35530;SDS011;21637;53.352;-6.356;2023-11-19T02:20:18;17.17;;;3.55;;
35530;SDS011;21637;53.352;-6.356;2023-11-19T02:22:48;17.23;;;3.25;;
35530;SDS011;21637;53.352;-6.356;2023-11-19T02:25:29;14.32;;;2.90;;
35530;SDS011;21637;53.352;-6.356;2023-11-19T02:27:59;23.83;;;4.10;;
35530;SDS011;21637;53.352;-6.356;2023-11-19T02:30:27;15.38;;;3.10;;
35530;SDS011;21637;53.352;-6.356;2023-11-19T02:32:56;13.70;;;2.88;;
35530;SDS011;21637;53.352;-6.356;2023-11-19T02:35:26;18.50;;;3.50;;
35530;SDS011;21637;53.352;-6.356;2023-11-19T02:37:55;17.10;;;2.70;;
35530;SDS011;21637;53.352;-6.356;2023-11-19T02:40:21;16.05;;;2.97;;
35530;SDS011;21637;53.352;-6.356;2023-11-19T02:42:49;19.58;;;3.60;;
35530;SDS011;21637;53.352;-6.356;2023-11-19T02:45:15;16.48;;;3.78;;
35530;SDS011;21637;53.352;-6.356;2023-11-19T02:47:42;15.25;;;2.85;;
35530;SDS011;21637;53.352;-6.356;2023-11-19T02:50:09;19.00;;;2.88;;
35530;SDS011;21637;53.352;-6.356;2023-11-19T02:52:40;16.20;;;3.58;;
35530;SDS011;21637;53.352;-6.356;2023-11-19T02:55:12;15.88;;;2.90;;
35530;SDS011;21637;53.352;-6.356;2023-11-19T02:57:39;16.73;;;3.10;;
35530;SDS011;21637;53.352;-6.356;2023-11-19T03:00:12;15.63;;;2.65;;
35530;SDS011;21637;53.352;-6.356;2023-11-19T03:02:41;18.60;;;3.00;;
35530;SDS011;21637;53.352;-6.356;2023-11-19T03:05:11;15.55;;;3.40;;
35530;SDS011;21637;53.352;-6.356;2023-11-19T03:07:39;17.13;;;3.30;;
35530;SDS011;21637;53.352;-6.356;2023-11-19T03:10:07;12.95;;;3.42;;
35530;SDS011;21637;53.352;-6.356;2023-11-19T03:12:34;12.73;;;2.50;;
35530;SDS011;21637;53.352;-6.356;2023-11-19T03:15:00;15.23;;;3.15;;
35530;SDS011;21637;53.352;-6.356;2023-11-19T03:17:26;14.10;;;3.30;;
35530;SDS011;21637;53.352;-6.356;2023-11-19T03:19:52;15.60;;;3.33;;
35530;SDS011;21637;53.352;-6.356;2023-11-19T03:22:18;16.52;;;3.00;;
35530;SDS011;21637;53.352;-6.356;2023-11-19T03:24:43;18.60;;;3.05;;
35530;SDS011;21637;53.352;-6.356;2023-11-19T03:27:09;15.35;;;3.25;;
35530;SDS011;21637;53.352;-6.356;2023-11-19T03:29:36;13.80;;;2.47;;
35530;SDS011;21637;53.352;-6.356;2023-11-19T03:32:02;19.70;;;3.67;;
35530;SDS011;21637;53.352;-6.356;2023-11-19T03:34:28;11.90;;;2.75;;
35530;SDS011;21637;53.352;-6.356;2023-11-19T03:36:54;24.65;;;3.17;;
35530;SDS011;21637;53.352;-6.356;2023-11-19T03:39:21;12.45;;;2.97;;
35530;SDS011;21637;53.352;-6.356;2023-11-19T03:41:49;14.75;;;2.72;;
35530;SDS011;21637;53.352;-6.356;2023-11-19T03:44:15;14.02;;;2.90;;
35530;SDS011;21637;53.352;-6.356;2023-11-19T03:46:41;16.02;;;3.15;;
35530;SDS011;21637;53.352;-6.356;2023-11-19T03:49:07;16.50;;;3.72;;
35530;SDS011;21637;53.352;-6.356;2023-11-19T03:51:33;14.63;;;2.67;;
35530;SDS011;21637;53.352;-6.356;2023-11-19T03:53:59;13.70;;;2.63;;
35530;SDS011;21637;53.352;-6.356;2023-11-19T03:56:26;15.43;;;3.03;;
35530;SDS011;21637;53.352;-6.356;2023-11-19T03:58:52;11.98;;;3.05;;
35530;SDS011;21637;53.352;-6.356;2023-11-19T04:01:18;11.35;;;2.42;;
35530;SDS011;21637;53.352;-6.356;2023-11-19T04:03:43;15.35;;;2.85;;
35530;SDS011;21637;53.352;-6.356;2023-11-19T04:06:09;13.15;;;3.17;;
35530;SDS011;21637;53.352;-6.356;2023-11-19T04:08:37;13.30;;;2.90;;
35530;SDS011;21637;53.352;-6.356;2023-11-19T04:11:06;10.80;;;2.28;;
35530;SDS011;21637;53.352;-6.356;2023-11-19T04:13:39;12.80;;;2.60;;
35530;SDS011;21637;53.352;-6.356;2023-11-19T04:16:05;16.45;;;2.80;;
35530;SDS011;21637;53.352;-6.356;2023-11-19T04:18:31;9.73;;;2.17;;
35530;SDS011;21637;53.352;-6.356;2023-11-19T04:20:59;13.98;;;3.15;;
35530;SDS011;21637;53.352;-6.356;2023-11-19T04:23:25;14.63;;;3.28;;
35530;SDS011;21637;53.352;-6.356;2023-11-19T04:25:51;12.07;;;2.90;;
35530;SDS011;21637;53.352;-6.356;2023-11-19T04:28:16;15.07;;;2.70;;
35530;SDS011;21637;53.352;-6.356;2023-11-19T04:30:42;16.67;;;2.80;;
35530;SDS011;21637;53.352;-6.356;2023-11-19T04:33:09;14.52;;;2.83;;
35530;SDS011;21637;53.352;-6.356;2023-11-19T04:35:35;12.90;;;2.65;;
35530;SDS011;21637;53.352;-6.356;2023-11-19T04:38:01;12.77;;;2.60;;
35530;SDS011;21637;53.352;-6.356;2023-11-19T04:40:27;17.33;;;2.28;;
35530;SDS011;21637;53.352;-6.356;2023-11-19T04:42:53;11.57;;;2.65;;
35530;SDS011;21637;53.352;-6.356;2023-11-19T04:45:18;11.55;;;2.38;;
35530;SDS011;21637;53.352;-6.356;2023-11-19T04:47:45;13.60;;;2.72;;
35530;SDS011;21637;53.352;-6.356;2023-11-19T04:50:11;10.43;;;2.28;;
35530;SDS011;21637;53.352;-6.356;2023-11-19T04:52:39;14.60;;;2.47;;
35530;SDS011;21637;53.352;-6.356;2023-11-19T04:55:05;13.32;;;3.20;;
35530;SDS011;21637;53.352;-6.356;2023-11-19T04:57:32;10.80;;;2.63;;
35530;SDS011;21637;53.352;-6.356;2023-11-19T04:59:58;10.95;;;2.17;;
35530;SDS011;21637;53.352;-6.356;2023-11-19T05:02:24;16.42;;;2.92;;
35530;SDS011;21637;53.352;-6.356;2023-11-19T05:04:49;13.25;;;2.38;;
35530;SDS011;21637;53.352;-6.356;2023-11-19T05:07:15;15.55;;;2.45;;
35530;SDS011;21637;53.352;-6.356;2023-11-19T05:09:41;9.48;;;1.90;;
35530;SDS011;21637;53.352;-6.356;2023-11-19T05:12:10;11.02;;;2.22;;
35530;SDS011;21637;53.352;-6.356;2023-11-19T05:14:37;15.10;;;2.65;;
35530;SDS011;21637;53.352;-6.356;2023-11-19T05:17:03;11.65;;;2.75;;
35530;SDS011;21637;53.352;-6.356;2023-11-19T05:19:29;13.27;;;2.60;;
35530;SDS011;21637;53.352;-6.356;2023-11-19T05:21:55;13.65;;;2.42;;
35530;SDS011;21637;53.352;-6.356;2023-11-19T05:24:20;11.00;;;2.15;;
35530;SDS011;21637;53.352;-6.356;2023-11-19T05:26:46;13.52;;;2.20;;
35530;SDS011;21637;53.352;-6.356;2023-11-19T05:29:12;15.32;;;2.58;;
35530;SDS011;21637;53.352;-6.356;2023-11-19T05:31:38;11.75;;;2.15;;
35530;SDS011;21637;53.352;-6.356;2023-11-19T05:34:03;9.23;;;2.10;;
35530;SDS011;21637;53.352;-6.356;2023-11-19T05:36:29;8.25;;;2.03;;
35530;SDS011;21637;53.352;-6.356;2023-11-19T05:38:55;8.77;;;1.90;;
35530;SDS011;21637;53.352;-6.356;2023-11-19T05:41:21;7.03;;;1.85;;
35530;SDS011;21637;53.352;-6.356;2023-11-19T05:43:47;8.65;;;1.88;;
35530;SDS011;21637;53.352;-6.356;2023-11-19T05:46:12;10.23;;;1.90;;
35530;SDS011;21637;53.352;-6.356;2023-11-19T05:48:38;10.82;;;2.38;;
35530;SDS011;21637;53.352;-6.356;2023-11-19T05:51:04;9.75;;;1.70;;
35530;SDS011;21637;53.352;-6.356;2023-11-19T05:53:30;7.85;;;1.98;;
35530;SDS011;21637;53.352;-6.356;2023-11-19T05:55:57;10.63;;;1.70;;
35530;SDS011;21637;53.352;-6.356;2023-11-19T05:58:24;6.38;;;1.52;;
35530;SDS011;21637;53.352;-6.356;2023-11-19T06:00:57;8.63;;;1.90;;
35530;SDS011;21637;53.352;-6.356;2023-11-19T06:03:25;7.45;;;1.50;;
35530;SDS011;21637;53.352;-6.356;2023-11-19T06:05:52;7.47;;;1.90;;
35530;SDS011;21637;53.352;-6.356;2023-11-19T06:08:19;7.72;;;1.27;;
35530;SDS011;21637;53.352;-6.356;2023-11-19T06:10:45;4.55;;;1.33;;
35530;SDS011;21637;53.352;-6.356;2023-11-19T06:13:12;5.75;;;1.15;;
35530;SDS011;21637;53.352;-6.356;2023-11-19T06:15:40;8.98;;;1.80;;
35530;SDS011;21637;53.352;-6.356;2023-11-19T06:18:09;5.07;;;1.17;;
35530;SDS011;21637;53.352;-6.356;2023-11-19T06:20:36;5.10;;;1.50;;
35530;SDS011;21637;53.352;-6.356;2023-11-19T06:23:02;11.07;;;1.42;;
35530;SDS011;21637;53.352;-6.356;2023-11-19T06:25:28;3.58;;;1.35;;
35530;SDS011;21637;53.352;-6.356;2023-11-19T06:27:53;5.30;;;1.23;;
35530;SDS011;21637;53.352;-6.356;2023-11-19T06:30:19;6.20;;;1.27;;
35530;SDS011;21637;53.352;-6.356;2023-11-19T06:32:45;4.50;;;1.08;;
35530;SDS011;21637;53.352;-6.356;2023-11-19T06:35:12;6.78;;;1.00;;
35530;SDS011;21637;53.352;-6.356;2023-11-19T06:37:39;5.03;;;1.40;;
35530;SDS011;21637;53.352;-6.356;2023-11-19T06:40:06;6.70;;;1.38;;
35530;SDS011;21637;53.352;-6.356;2023-11-19T06:42:34;8.52;;;1.40;;
35530;SDS011;21637;53.352;-6.356;2023-11-19T06:45:00;8.40;;;1.75;;
35530;SDS011;21637;53.352;-6.356;2023-11-19T06:47:27;9.25;;;2.00;;
35530;SDS011;21637;53.352;-6.356;2023-11-19T06:49:53;5.10;;;1.55;;
35530;SDS011;21637;53.352;-6.356;2023-11-19T06:52:19;6.13;;;1.67;;
35530;SDS011;21637;53.352;-6.356;2023-11-19T06:54:45;8.80;;;1.63;;
35530;SDS011;21637;53.352;-6.356;2023-11-19T06:57:11;8.60;;;1.55;;
35530;SDS011;21637;53.352;-6.356;2023-11-19T06:59:37;7.50;;;1.33;;
35530;SDS011;21637;53.352;-6.356;2023-11-19T07:02:04;5.63;;;1.40;;
35530;SDS011;21637;53.352;-6.356;2023-11-19T07:04:30;9.52;;;1.80;;
35530;SDS011;21637;53.352;-6.356;2023-11-19T07:06:56;12.68;;;2.42;;
35530;SDS011;21637;53.352;-6.356;2023-11-19T07:09:22;9.98;;;1.77;;
35530;SDS011;21637;53.352;-6.356;2023-11-19T07:11:48;10.75;;;1.90;;
35530;SDS011;21637;53.352;-6.356;2023-11-19T07:14:17;7.57;;;1.42;;
35530;SDS011;21637;53.352;-6.356;2023-11-19T07:16:44;5.45;;;1.40;;
35530;SDS011;21637;53.352;-6.356;2023-11-19T07:19:11;4.45;;;1.50;;
35530;SDS011;21637;53.352;-6.356;2023-11-19T07:21:37;6.43;;;1.27;;
35530;SDS011;21637;53.352;-6.356;2023-11-19T07:24:09;5.43;;;1.27;;
35530;SDS011;21637;53.352;-6.356;2023-11-19T07:26:35;7.95;;;1.58;;
35530;SDS011;21637;53.352;-6.356;2023-11-19T07:29:05;8.57;;;1.40;;
35530;SDS011;21637;53.352;-6.356;2023-11-19T07:31:32;7.60;;;0.98;;
35530;SDS011;21637;53.352;-6.356;2023-11-19T07:33:58;7.72;;;1.50;;
35530;SDS011;21637;53.352;-6.356;2023-11-19T07:36:24;6.90;;;1.30;;
35530;SDS011;21637;53.352;-6.356;2023-11-19T07:38:49;5.15;;;1.13;;
35530;SDS011;21637;53.352;-6.356;2023-11-19T07:41:15;6.03;;;1.20;;
35530;SDS011;21637;53.352;-6.356;2023-11-19T07:43:44;3.67;;;0.73;;
35530;SDS011;21637;53.352;-6.356;2023-11-19T07:46:11;6.93;;;1.00;;
35530;SDS011;21637;53.352;-6.356;2023-11-19T07:48:38;4.53;;;1.02;;
35530;SDS011;21637;53.352;-6.356;2023-11-19T07:51:05;3.55;;;0.90;;
35530;SDS011;21637;53.352;-6.356;2023-11-19T07:53:31;3.58;;;0.80;;
35530;SDS011;21637;53.352;-6.356;2023-11-19T07:55:58;5.30;;;0.90;;
35530;SDS011;21637;53.352;-6.356;2023-11-19T07:58:27;3.72;;;1.00;;
35530;SDS011;21637;53.352;-6.356;2023-11-19T08:00:52;2.20;;;0.77;;
35530;SDS011;21637;53.352;-6.356;2023-11-19T08:03:18;5.07;;;1.08;;
35530;SDS011;21637;53.352;-6.356;2023-11-19T08:05:44;3.15;;;1.00;;
35530;SDS011;21637;53.352;-6.356;2023-11-19T08:08:11;4.95;;;0.90;;
35530;SDS011;21637;53.352;-6.356;2023-11-19T08:10:37;3.55;;;0.80;;
35530;SDS011;21637;53.352;-6.356;2023-11-19T08:13:03;3.38;;;1.30;;
35530;SDS011;21637;53.352;-6.356;2023-11-19T08:15:29;2.08;;;0.60;;
35530;SDS011;21637;53.352;-6.356;2023-11-19T08:17:55;1.02;;;0.52;;
35530;SDS011;21637;53.352;-6.356;2023-11-19T08:20:21;3.20;;;0.55;;
35530;SDS011;21637;53.352;-6.356;2023-11-19T08:22:47;2.42;;;0.60;;
35530;SDS011;21637;53.352;-6.356;2023-11-19T08:25:13;3.88;;;0.65;;
35530;SDS011;21637;53.352;-6.356;2023-11-19T08:27:39;3.42;;;0.60;;
35530;SDS011;21637;53.352;-6.356;2023-11-19T08:30:05;2.35;;;0.82;;
35530;SDS011;21637;53.352;-6.356;2023-11-19T08:32:32;2.15;;;0.60;;
35530;SDS011;21637;53.352;-6.356;2023-11-19T08:34:58;2.05;;;0.47;;
35530;SDS011;21637;53.352;-6.356;2023-11-19T08:37:23;2.30;;;0.50;;
35530;SDS011;21637;53.352;-6.356;2023-11-19T08:39:49;1.83;;;0.60;;
35530;SDS011;21637;53.352;-6.356;2023-11-19T08:42:16;2.25;;;0.50;;
35530;SDS011;21637;53.352;-6.356;2023-11-19T08:44:42;0.75;;;0.30;;
35530;SDS011;21637;53.352;-6.356;2023-11-19T08:47:12;4.10;;;0.75;;
35530;SDS011;21637;53.352;-6.356;2023-11-19T08:49:41;1.35;;;0.50;;
35530;SDS011;21637;53.352;-6.356;2023-11-19T08:52:06;0.40;;;0.30;;
35530;SDS011;21637;53.352;-6.356;2023-11-19T08:54:33;1.50;;;0.50;;
35530;SDS011;21637;53.352;-6.356;2023-11-19T08:56:59;1.15;;;0.30;;
35530;SDS011;21637;53.352;-6.356;2023-11-19T08:59:25;2.83;;;0.70;;
35530;SDS011;21637;53.352;-6.356;2023-11-19T09:01:51;2.90;;;0.60;;
35530;SDS011;21637;53.352;-6.356;2023-11-19T09:04:17;1.95;;;0.60;;
35530;SDS011;21637;53.352;-6.356;2023-11-19T09:06:42;1.40;;;0.50;;
35530;SDS011;21637;53.352;-6.356;2023-11-19T09:09:09;1.20;;;0.40;;
35530;SDS011;21637;53.352;-6.356;2023-11-19T09:11:35;0.93;;;0.50;;
35530;SDS011;21637;53.352;-6.356;2023-11-19T09:14:01;1.02;;;0.35;;
35530;SDS011;21637;53.352;-6.356;2023-11-19T09:16:27;2.60;;;0.65;;
35530;SDS011;21637;53.352;-6.356;2023-11-19T09:18:53;3.00;;;0.43;;
35530;SDS011;21637;53.352;-6.356;2023-11-19T09:21:19;1.40;;;0.52;;
35530;SDS011;21637;53.352;-6.356;2023-11-19T09:23:45;1.40;;;0.40;;
35530;SDS011;21637;53.352;-6.356;2023-11-19T09:26:12;1.20;;;0.43;;
35530;SDS011;21637;53.352;-6.356;2023-11-19T09:28:41;1.00;;;0.40;;
35530;SDS011;21637;53.352;-6.356;2023-11-19T09:31:17;0.40;;;0.30;;
35530;SDS011;21637;53.352;-6.356;2023-11-19T09:33:43;0.85;;;0.40;;
35530;SDS011;21637;53.352;-6.356;2023-11-19T09:36:10;1.23;;;0.50;;
35530;SDS011;21637;53.352;-6.356;2023-11-19T09:38:39;0.52;;;0.30;;
35530;SDS011;21637;53.352;-6.356;2023-11-19T09:41:06;0.52;;;0.25;;
35530;SDS011;21637;53.352;-6.356;2023-11-19T09:43:35;0.47;;;0.47;;
35530;SDS011;21637;53.352;-6.356;2023-11-19T09:46:04;1.35;;;0.52;;
35530;SDS011;21637;53.352;-6.356;2023-11-19T09:48:32;2.88;;;0.60;;
35530;SDS011;21637;53.352;-6.356;2023-11-19T09:51:00;1.33;;;0.40;;
35530;SDS011;21637;53.352;-6.356;2023-11-19T09:53:26;1.70;;;0.50;;
35530;SDS011;21637;53.352;-6.356;2023-11-19T09:55:52;2.72;;;0.65;;
35530;SDS011;21637;53.352;-6.356;2023-11-19T09:58:18;0.98;;;0.52;;
35530;SDS011;21637;53.352;-6.356;2023-11-19T10:00:44;4.13;;;0.80;;
35530;SDS011;21637;53.352;-6.356;2023-11-19T10:03:10;3.05;;;0.55;;
35530;SDS011;21637;53.352;-6.356;2023-11-19T10:05:38;2.38;;;0.70;;
35530;SDS011;21637;53.352;-6.356;2023-11-19T10:08:07;2.97;;;0.60;;
35530;SDS011;21637;53.352;-6.356;2023-11-19T10:10:33;4.90;;;0.80;;
35530;SDS011;21637;53.352;-6.356;2023-11-19T10:12:59;4.18;;;0.95;;
35530;SDS011;21637;53.352;-6.356;2023-11-19T10:15:26;3.17;;;0.93;;
35530;SDS011;21637;53.352;-6.356;2023-11-19T10:17:54;3.45;;;0.90;;
35530;SDS011;21637;53.352;-6.356;2023-11-19T10:20:23;3.35;;;0.68;;
35530;SDS011;21637;53.352;-6.356;2023-11-19T10:22:52;2.45;;;0.73;;
35530;SDS011;21637;53.352;-6.356;2023-11-19T10:25:22;2.17;;;0.80;;
35530;SDS011;21637;53.352;-6.356;2023-11-19T10:27:49;2.00;;;0.70;;
35530;SDS011;21637;53.352;-6.356;2023-11-19T10:30:22;3.72;;;0.85;;
35530;SDS011;21637;53.352;-6.356;2023-11-19T10:35:31;2.85;;;0.77;;
35530;SDS011;21637;53.352;-6.356;2023-11-19T10:38:13;5.18;;;1.10;;
35530;SDS011;21637;53.352;-6.356;2023-11-19T10:40:42;3.08;;;0.73;;
35530;SDS011;21637;53.352;-6.356;2023-11-19T10:43:08;4.97;;;1.13;;
35530;SDS011;21637;53.352;-6.356;2023-11-19T10:45:35;6.30;;;0.85;;
35530;SDS011;21637;53.352;-6.356;2023-11-19T10:48:04;1.67;;;0.65;;
35530;SDS011;21637;53.352;-6.356;2023-11-19T10:50:35;2.80;;;0.95;;
35530;SDS011;21637;53.352;-6.356;2023-11-19T10:53:01;4.45;;;0.75;;
35530;SDS011;21637;53.352;-6.356;2023-11-19T10:55:29;1.85;;;0.73;;
35530;SDS011;21637;53.352;-6.356;2023-11-19T10:57:58;1.70;;;0.50;;
35530;SDS011;21637;53.352;-6.356;2023-11-19T11:00:25;1.42;;;0.68;;
35530;SDS011;21637;53.352;-6.356;2023-11-19T11:02:55;3.72;;;0.80;;
35530;SDS011;21637;53.352;-6.356;2023-11-19T11:05:26;2.08;;;0.70;;
35530;SDS011;21637;53.352;-6.356;2023-11-19T11:07:52;2.00;;;0.70;;
35530;SDS011;21637;53.352;-6.356;2023-11-19T11:10:21;2.88;;;0.80;;
35530;SDS011;21637;53.352;-6.356;2023-11-19T11:12:51;2.42;;;0.77;;
35530;SDS011;21637;53.352;-6.356;2023-11-19T11:15:24;5.18;;;0.98;;
35530;SDS011;21637;53.352;-6.356;2023-11-19T11:17:54;2.03;;;0.70;;
35530;SDS011;21637;53.352;-6.356;2023-11-19T11:20:31;0.85;;;0.55;;
35530;SDS011;21637;53.352;-6.356;2023-11-19T11:25:57;2.28;;;0.60;;
35530;SDS011;21637;53.352;-6.356;2023-11-19T11:31:23;1.40;;;0.50;;
35530;SDS011;21637;53.352;-6.356;2023-11-19T11:34:10;1.75;;;0.60;;
35530;SDS011;21637;53.352;-6.356;2023-11-19T11:37:07;4.90;;;0.82;;
35530;SDS011;21637;53.352;-6.356;2023-11-19T11:39:39;3.75;;;0.88;;
35530;SDS011;21637;53.352;-6.356;2023-11-19T11:47:25;2.58;;;1.00;;
35530;SDS011;21637;53.352;-6.356;2023-11-19T11:50:15;3.22;;;0.80;;
35530;SDS011;21637;53.352;-6.356;2023-11-19T11:55:27;2.90;;;0.80;;
35530;SDS011;21637;53.352;-6.356;2023-11-19T11:57:58;1.70;;;1.10;;
35530;SDS011;21637;53.352;-6.356;2023-11-19T12:00:31;2.20;;;0.75;;
35530;SDS011;21637;53.352;-6.356;2023-11-19T12:03:01;2.22;;;0.70;;
35530;SDS011;21637;53.352;-6.356;2023-11-19T12:05:29;0.80;;;0.60;;
35530;SDS011;21637;53.352;-6.356;2023-11-19T12:08:04;3.97;;;0.90;;
35530;SDS011;21637;53.352;-6.356;2023-11-19T12:10:32;1.98;;;1.00;;
35530;SDS011;21637;53.352;-6.356;2023-11-19T12:13:04;2.75;;;0.50;;
35530;SDS011;21637;53.352;-6.356;2023-11-19T12:15:33;2.80;;;1.17;;
35530;SDS011;21637;53.352;-6.356;2023-11-19T12:18:31;1.75;;;0.80;;
35530;SDS011;21637;53.352;-6.356;2023-11-19T12:20:57;0.85;;;0.60;;
35530;SDS011;21637;53.352;-6.356;2023-11-19T12:23:30;4.13;;;1.10;;
35530;SDS011;21637;53.352;-6.356;2023-11-19T12:25:57;1.88;;;0.90;;
35530;SDS011;21637;53.352;-6.356;2023-11-19T12:28:23;2.83;;;1.10;;
35530;SDS011;21637;53.352;-6.356;2023-11-19T12:30:51;2.58;;;0.80;;
35530;SDS011;21637;53.352;-6.356;2023-11-19T12:33:18;2.38;;;0.80;;
35530;SDS011;21637;53.352;-6.356;2023-11-19T12:35:48;1.58;;;1.08;;
35530;SDS011;21637;53.352;-6.356;2023-11-19T12:40:46;3.70;;;0.77;;
35530;SDS011;21637;53.352;-6.356;2023-11-19T12:43:21;1.85;;;0.73;;
35530;SDS011;21637;53.352;-6.356;2023-11-19T12:45:49;3.88;;;1.20;;
35530;SDS011;21637;53.352;-6.356;2023-11-19T12:48:15;2.88;;;0.90;;
35530;SDS011;21637;53.352;-6.356;2023-11-19T12:50:51;3.30;;;1.30;;
35530;SDS011;21637;53.352;-6.356;2023-11-19T12:53:18;2.83;;;0.70;;
35530;SDS011;21637;53.352;-6.356;2023-11-19T12:55:44;3.00;;;0.95;;
35530;SDS011;21637;53.352;-6.356;2023-11-19T12:58:09;2.78;;;0.90;;
35530;SDS011;21637;53.352;-6.356;2023-11-19T13:00:35;4.45;;;1.00;;
35530;SDS011;21637;53.352;-6.356;2023-11-19T13:03:02;6.90;;;1.85;;
35530;SDS011;21637;53.352;-6.356;2023-11-19T13:05:32;4.43;;;1.58;;
35530;SDS011;21637;53.352;-6.356;2023-11-19T13:08:05;8.60;;;1.80;;
35530;SDS011;21637;53.352;-6.356;2023-11-19T13:10:32;9.38;;;1.95;;
35530;SDS011;21637;53.352;-6.356;2023-11-19T13:13:13;11.13;;;2.33;;
35530;SDS011;21637;53.352;-6.356;2023-11-19T13:15:39;11.43;;;2.50;;
35530;SDS011;21637;53.352;-6.356;2023-11-19T13:18:05;9.73;;;2.40;;
35530;SDS011;21637;53.352;-6.356;2023-11-19T13:20:31;12.55;;;3.28;;
35530;SDS011;21637;53.352;-6.356;2023-11-19T13:22:58;21.02;;;3.97;;
35530;SDS011;21637;53.352;-6.356;2023-11-19T13:25:26;18.17;;;3.45;;
35530;SDS011;21637;53.352;-6.356;2023-11-19T13:27:52;13.20;;;3.40;;
35530;SDS011;21637;53.352;-6.356;2023-11-19T13:30:19;16.80;;;3.28;;
35530;SDS011;21637;53.352;-6.356;2023-11-19T13:32:45;18.77;;;3.65;;
35530;SDS011;21637;53.352;-6.356;2023-11-19T13:35:13;18.23;;;3.55;;
35530;SDS011;21637;53.352;-6.356;2023-11-19T13:37:40;19.50;;;3.25;;
35530;SDS011;21637;53.352;-6.356;2023-11-19T13:40:09;19.58;;;3.38;;
35530;SDS011;21637;53.352;-6.356;2023-11-19T13:42:38;18.00;;;2.95;;
35530;SDS011;21637;53.352;-6.356;2023-11-19T13:45:09;15.60;;;3.50;;
35530;SDS011;21637;53.352;-6.356;2023-11-19T13:47:37;13.48;;;3.13;;
35530;SDS011;21637;53.352;-6.356;2023-11-19T13:50:06;16.05;;;3.20;;
35530;SDS011;21637;53.352;-6.356;2023-11-19T13:52:34;15.52;;;3.38;;
35530;SDS011;21637;53.352;-6.356;2023-11-19T13:55:00;10.52;;;3.08;;
35530;SDS011;21637;53.352;-6.356;2023-11-19T13:57:25;14.32;;;3.78;;
35530;SDS011;21637;53.352;-6.356;2023-11-19T13:59:51;16.50;;;4.07;;
35530;SDS011;21637;53.352;-6.356;2023-11-19T14:02:17;14.18;;;2.92;;
35530;SDS011;21637;53.352;-6.356;2023-11-19T14:04:43;13.02;;;3.17;;
35530;SDS011;21637;53.352;-6.356;2023-11-19T14:07:08;22.20;;;3.95;;
35530;SDS011;21637;53.352;-6.356;2023-11-19T14:09:34;16.00;;;3.17;;
35530;SDS011;21637;53.352;-6.356;2023-11-19T14:12:00;13.95;;;2.90;;
35530;SDS011;21637;53.352;-6.356;2023-11-19T14:14:25;13.75;;;3.10;;
35530;SDS011;21637;53.352;-6.356;2023-11-19T14:16:51;11.40;;;2.67;;
35530;SDS011;21637;53.352;-6.356;2023-11-19T14:19:17;13.55;;;3.10;;
35530;SDS011;21637;53.352;-6.356;2023-11-19T14:21:43;11.77;;;2.72;;
35530;SDS011;21637;53.352;-6.356;2023-11-19T14:24:10;11.30;;;2.53;;
35530;SDS011;21637;53.352;-6.356;2023-11-19T14:26:35;9.23;;;2.13;;
35530;SDS011;21637;53.352;-6.356;2023-11-19T14:29:01;12.23;;;2.80;;
35530;SDS011;21637;53.352;-6.356;2023-11-19T14:31:27;16.48;;;3.58;;
35530;SDS011;21637;53.352;-6.356;2023-11-19T14:33:54;15.00;;;2.83;;
35530;SDS011;21637;53.352;-6.356;2023-11-19T14:36:20;15.20;;;2.80;;
35530;SDS011;21637;53.352;-6.356;2023-11-19T14:38:46;15.63;;;3.78;;
35530;SDS011;21637;53.352;-6.356;2023-11-19T14:41:12;16.50;;;4.07;;
35530;SDS011;21637;53.352;-6.356;2023-11-19T14:43:39;11.82;;;3.63;;
35530;SDS011;21637;53.352;-6.356;2023-11-19T14:46:04;14.57;;;3.05;;
35530;SDS011;21637;53.352;-6.356;2023-11-19T14:48:31;10.63;;;2.63;;
35530;SDS011;21637;53.352;-6.356;2023-11-19T14:50:57;17.65;;;2.38;;